• Join FlightAware (Why Join?)
  • Login
  • US Flag 
09:59AM EDT


 

Airport Tracker/Info


-or-


 

Live Flight TrackerFlight Track Log ✈ SCX425 ✈ 05-Jul-2013 ✈ KMSP - KLAX

Flight Track Log - Related Links

Times and Time Zones

All times are in EDT time to prevent confusion due to time zone crossing. See the SCX425 flight status page for this flight to view local times or setup timezone preferences in your user account.

Time Position Orientation Groundspeed Altitude Reporting Facility
EDT Latitude Longitude Course Direction KTS MPH feet Rate Location/Type
04:04PM 44.8333 -93.2333 215° Southwest 174 200 2,700  Level Minneapolis TRACON
04:05PM 44.8000 -93.2667 215° Southwest 205 236 5,000 2,580 Climbing Minneapolis TRACON
04:06PM 44.7489 -93.3739 236° Southwest 261 300 8,700 2,520 Climbing Minneapolis Center
04:07PM 44.7289 -93.4742 254° West 267 307 11,200 2,220 Climbing Minneapolis Center
04:08PM 44.7042 -93.5981 254° West 334 384 13,300 2,580 Climbing Minneapolis Center
04:09PM 44.6392 -93.7367 237° Southwest 359 413 16,500 2,760 Climbing Minneapolis Center
04:10PM 44.5781 -93.8533 234° Southwest 371 427 19,000 2,280 Climbing Minneapolis Center
04:11PM 44.5144 -93.9764 234° Southwest 385 443 21,300 1,980 Climbing Minneapolis Center
04:13PM 44.4464 -94.1067 234° Southwest 410 472 23,200 1,860 Climbing Minneapolis Center
04:14PM 44.3750 -94.2406 233° Southwest 426 490 25,200 1,860 Climbing Minneapolis Center
04:15PM 44.3019 -94.3775 233° Southwest 436 502 27,100 1,860 Climbing Minneapolis Center
04:16PM 44.2119 -94.5464 233° Southwest 449 517 29,100 1,740 Climbing Minneapolis Center
04:17PM 44.1356 -94.6886 233° Southwest 456 525 30,700 1,560 Climbing Minneapolis Center
04:18PM 44.0561 -94.8344 233° Southwest 465 535 32,400 1,620 Climbing Minneapolis Center
04:19PM 43.9761 -94.9792 233° Southwest 471 542 34,100 1,560 Climbing Minneapolis Center
04:20PM 43.9022 -95.1242 235° Southwest 462 532 35,700 1,200 Climbing Minneapolis Center
04:21PM 43.8519 -95.2836 246° West 452 520 36,700 900 Climbing Minneapolis Center
04:22PM 43.7997 -95.4431 246° West 453 521 37,600 600 Climbing Minneapolis Center
04:23PM 43.7361 -95.6364 246° West 458 527 38,000 180 Climbing Minneapolis Center
04:24PM 43.6833 -95.7967 246° West 458 527 38,000  Level Minneapolis Center
04:25PM 43.6300 -95.9556 245° Southwest 455 524 38,000  Level Minneapolis Center
04:26PM 43.5783 -96.1147 246° West 454 522 38,000  Level Minneapolis Center
04:27PM 43.5247 -96.2722 245° Southwest 453 521 38,000  Level Minneapolis Center
04:28PM 43.4725 -96.4275 245° Southwest 447 514 38,000  Level Minneapolis Center
04:29PM 43.4189 -96.5822 245° Southwest 446 513 38,000  Level Minneapolis Center
04:30PM 43.3667 -96.7383 245° Southwest 448 516 38,000  Level Minneapolis Center
04:31PM 43.3031 -96.9236 245° Southwest 448 516 38,000  Level Minneapolis Center
04:32PM 43.2494 -97.0775 244° Southwest 447 514 38,000  Level Minneapolis Center
04:33PM 43.1958 -97.2303 244° Southwest 446 513 38,000  Level Minneapolis Center
04:34PM 43.1422 -97.3828 244° Southwest 445 512 38,000  Level Minneapolis Center
04:35PM 43.0894 -97.5342 245° Southwest 443 510 38,000  Level Minneapolis Center
04:36PM 43.0353 -97.6858 244° Southwest 444 511 38,000  Level Minneapolis Center
04:37PM 42.9728 -97.8650 245° Southwest 438 504 38,000  Level Minneapolis Center
04:38PM 42.9175 -98.0150 243° Southwest 441 507 38,000  Level Minneapolis Center
04:39PM 42.8636 -98.1622 244° Southwest 439 505 38,000  Level Minneapolis Center
04:40PM 42.8106 -98.3128 244° Southwest 438 504 38,000  Level Minneapolis Center
04:41PM 42.7569 -98.4606 244° Southwest 437 503 38,000  Level Minneapolis Center
04:42PM 42.7019 -98.6089 243° Southwest 438 504 38,000  Level Minneapolis Center
04:43PM 42.6369 -98.7869 244° Southwest 440 506 38,000  Level Minneapolis Center
04:45PM 42.5817 -98.9369 243° Southwest 442 509 38,000  Level Minneapolis Center
04:46PM 42.5258 -99.0842 243° Southwest 441 507 38,000  Level Minneapolis Center
04:47PM 42.4714 -99.2331 244° Southwest 442 509 38,000  Level Minneapolis Center
04:48PM 42.4153 -99.3819 243° Southwest 444 511 38,000  Level Minneapolis Center
04:48PM 42.3814 -99.4719 243° Southwest 444 511 38,000  Level Denver Center
04:49PM 42.3244 -99.6181 242° Southwest 441 507 38,000  Level Denver Center
04:50PM 42.2928 -99.7061 244° Southwest 442 509 38,000  Level Minneapolis Center
04:51PM 42.2381 -99.8497 243° Southwest 435 501 38,000  Level Minneapolis Center
04:51PM 42.2136 -99.9125 242° Southwest 441 507 38,000  Level Denver Center
04:52PM 42.1506 -100.0731 242° Southwest 436 502 38,000  Level Denver Center
04:53PM 42.0969 -100.2122 243° Southwest 437 503 38,000  Level Denver Center
04:54PM 42.0342 -100.3753 243° Southwest 439 505 38,000  Level Denver Center
04:55PM 41.9800 -100.5122 242° Southwest 436 502 38,000  Level Denver Center
04:56PM 41.9158 -100.6733 242° Southwest 437 503 38,000  Level Denver Center
04:57PM 41.8625 -100.8106 242° Southwest 434 499 38,000  Level Denver Center
04:58PM 41.8011 -100.9678 242° Southwest 428 493 38,000  Level Denver Center
04:59PM 41.7450 -101.1033 241° Southwest 435 501 38,000  Level Denver Center
05:00PM 41.6917 -101.2400 242° Southwest 435 501 38,000  Level Denver Center
05:02PM 41.6275 -101.3969 241° Southwest 434 499 38,000  Level Denver Center
05:03PM 41.5736 -101.5317 242° Southwest 432 497 38,000  Level Denver Center
05:04PM 41.5100 -101.6867 241° Southwest 428 493 38,000  Level Denver Center
05:05PM 41.4553 -101.8200 241° Southwest 430 495 38,000  Level Denver Center
05:06PM 41.3917 -101.9731 241° Southwest 427 491 38,000  Level Denver Center
05:07PM 41.3369 -102.1042 241° Southwest 425 489 38,000  Level Denver Center
05:08PM 41.2733 -102.2581 241° Southwest 426 490 38,000  Level Denver Center
05:09PM 41.2192 -102.3889 241° Southwest 425 489 38,000  Level Denver Center
05:10PM 41.1539 -102.5411 240° Southwest 425 489 38,000  Level Denver Center
05:11PM 41.0997 -102.6711 241° Southwest 422 486 38,000  Level Denver Center
05:12PM 41.0367 -102.8222 241° Southwest 420 483 38,000  Level Denver Center
05:13PM 40.9814 -102.9503 240° Southwest 419 482 38,000  Level Denver Center
05:14PM 40.9231 -103.0881 241° Southwest 418 481 38,000  Level Denver Center
05:15PM 40.8778 -103.1947 241° Southwest 417 480 38,000  Level Denver Center
05:16PM 40.8036 -103.3658 240° Southwest 419 482 38,000  Level Denver Center
05:17PM 40.7486 -103.4947 241° Southwest 420 483 38,000  Level Denver Center
05:18PM 40.6736 -103.6636 240° Southwest 418 481 38,000  Level Denver Center
05:19PM 40.6181 -103.7917 240° Southwest 420 483 38,000  Level Denver Center
05:20PM 40.5431 -103.9636 240° Southwest 422 486 38,000  Level Denver Center
05:22PM 40.4781 -104.1086 240° Southwest 431 496 38,000  Level Denver Center
05:23PM 40.4203 -104.2450 241° Southwest 426 490 38,000  Level Denver Center
05:24PM 40.3564 -104.3892 240° Southwest 427 491 38,000  Level Denver Center
05:25PM 40.2969 -104.5214 240° Southwest 424 488 38,000  Level Denver Center
05:26PM 40.2372 -104.6542 240° Southwest 423 487 38,000 60 Level Denver Center
05:27PM 40.1575 -104.7856 232° Southwest 431 496 38,200 480 Climbing Denver Center
05:28PM 40.0839 -104.9106 232° Southwest 436 502 39,100 840 Climbing Denver Center
05:29PM 40.0167 -105.0536 239° Southwest 433 498 40,000 420 Climbing Denver Center
05:30PM 39.9589 -105.1869 241° Southwest 425 489 40,000  Level Denver Center
05:31PM 39.8967 -105.3225 239° Southwest 437 503 40,000  Level Denver Center
05:32PM 39.8308 -105.4669 239° Southwest 433 498 40,000  Level Denver Center
05:33PM 39.7681 -105.6028 239° Southwest 438 504 40,000  Level Denver Center
05:34PM 39.7075 -105.7344 239° Southwest 426 490 40,000  Level Denver Center
05:35PM 39.6453 -105.8628 238° Southwest 415 478 40,000  Level Denver Center
05:36PM 39.5856 -105.9950 240° Southwest 422 486 40,000  Level Denver Center
05:37PM 39.5231 -106.1261 238° Southwest 426 490 40,000  Level Denver Center
05:38PM 39.4622 -106.2572 239° Southwest 424 488 40,000  Level Denver Center
05:39PM 39.3958 -106.3981 239° Southwest 428 493 40,000  Level Denver Center
05:40PM 39.3275 -106.5419 238° Southwest 422 486 40,000  Level Denver Center
05:41PM 39.2681 -106.6669 238° Southwest 423 487 40,000  Level Denver Center
05:42PM 39.1986 -106.8111 238° Southwest 423 487 40,000  Level Denver Center
05:43PM 39.1397 -106.9344 238° Southwest 422 486 40,000  Level Denver Center
05:44PM 39.0800 -107.0581 238° Southwest 423 487 40,000  Level Denver Center
05:45PM 39.0111 -107.2011 238° Southwest 421 484 40,000  Level Denver Center
05:46PM 38.9519 -107.3225 238° Southwest 418 481 40,000  Level Denver Center
05:47PM 38.8825 -107.4644 238° Southwest 416 479 40,000  Level Denver Center
05:48PM 38.8236 -107.5861 238° Southwest 418 481 40,000  Level Denver Center
05:49PM 38.7536 -107.7283 238° Southwest 421 484 40,000  Level Denver Center
05:50PM 38.6939 -107.8492 238° Southwest 420 483 40,000  Level Denver Center
05:52PM 38.6147 -108.0097 238° Southwest 416 479 40,000  Level Denver Center
05:53PM 38.5539 -108.1325 238° Southwest 424 488 40,000  Level Denver Center
05:54PM 38.4928 -108.2564 238° Southwest 428 493 40,000  Level Denver Center
05:55PM 38.4208 -108.3986 237° Southwest 427 491 40,000  Level Denver Center
05:56PM 38.3589 -108.5231 238° Southwest 432 497 40,000  Level Denver Center
05:57PM 38.2869 -108.6647 237° Southwest 428 493 40,000  Level Denver Center
05:58PM 38.2250 -108.7903 238° Southwest 430 495 40,000  Level Denver Center
05:59PM 38.1514 -108.9325 237° Southwest 432 497 40,000  Level Denver Center
06:00PM 38.0894 -109.0550 237° Southwest 430 495 40,000  Level Denver Center
06:01PM 38.0267 -109.1758 237° Southwest 420 483 40,000  Level Denver Center
06:02PM 37.9533 -109.3169 237° Southwest 428 493 40,000  Level Denver Center
06:03PM 37.8908 -109.4364 236° Southwest 426 490 40,000  Level Denver Center
06:04PM 37.8189 -109.5772 237° Southwest 427 491 40,000  Level Denver Center
06:05PM 37.7567 -109.6939 236° Southwest 423 487 40,000  Level Denver Center
06:06PM 37.6844 -109.8317 237° Southwest 420 483 40,000  Level Denver Center
06:07PM 37.6231 -109.9506 237° Southwest 422 486 40,000  Level Denver Center
06:08PM 37.5619 -110.0658 236° Southwest 416 479 40,000  Level Denver Center
06:09PM 37.4911 -110.2000 236° Southwest 413 475 40,000  Level Denver Center
06:10PM 37.4306 -110.3103 235° Southwest 414 476 40,000  Level Denver Center
06:11PM 37.3667 -110.4306 236° Southwest 414 476 40,000  Level Denver Center
06:12PM 37.2917 -110.5758 237° Southwest 411 473 40,000  Level Denver Center
06:13PM 37.2289 -110.6956 237° Southwest 411 473 40,000  Level Denver Center
06:14PM 37.1631 -110.8164 236° Southwest 416 479 40,000  Level Denver Center
06:15PM 37.0981 -110.9375 236° Southwest 419 482 40,000  Level Denver Center
06:16PM 37.0325 -111.0572 236° Southwest 416 479 40,000  Level Denver Center
06:17PM 36.9628 -111.1800 235° Southwest 423 487 40,000  Level Denver Center
06:18PM 36.8989 -111.2983 236° Southwest 414 476 40,000  Level Denver Center
06:19PM 36.8336 -111.4181 236° Southwest 413 475 40,000  Level Denver Center
06:20PM 36.7533 -111.5633 235° Southwest 420 483 40,000  Level Denver Center
06:21PM 36.6867 -111.6872 236° Southwest 421 484 40,000  Level Los Angeles Center
06:22PM 36.6300 -111.8167 241° Southwest 423 487 40,000  Level Los Angeles Center
06:23PM 36.5717 -111.9469 241° Southwest 429 494 40,000  Level Los Angeles Center
06:25PM 36.5142 -112.0772 241° Southwest 429 494 40,000  Level Los Angeles Center
06:26PM 36.4447 -112.2344 241° Southwest 431 496 40,000  Level Los Angeles Center
06:27PM 36.3878 -112.3631 241° Southwest 427 491 40,000  Level Los Angeles Center
06:28PM 36.3306 -112.4911 241° Southwest 424 488 40,000  Level Los Angeles Center
06:29PM 36.2725 -112.6183 241° Southwest 424 488 40,000  Level Los Angeles Center
06:30PM 36.2144 -112.7467 241° Southwest 426 490 40,000  Level Los Angeles Center
06:31PM 36.1556 -112.8764 241° Southwest 430 495 40,000  Level Los Angeles Center
06:32PM 36.0969 -113.0053 241° Southwest 430 495 40,000  Level Los Angeles Center
06:33PM 36.0378 -113.1336 240° Southwest 429 494 40,000  Level Los Angeles Center
06:34PM 35.9753 -113.2706 241° Southwest 426 490 40,000  Level Los Angeles Center
06:35PM 35.9114 -113.4136 241° Southwest 427 491 40,000  Level Los Angeles Center
06:36PM 35.8531 -113.5381 240° Southwest 425 489 40,000  Level Los Angeles Center
06:37PM 35.7875 -113.6786 240° Southwest 428 493 40,000  Level Los Angeles Center
06:38PM 35.7281 -113.8042 240° Southwest 424 488 40,000  Level Los Angeles Center
06:39PM 35.6778 -113.9142 241° Southwest 427 491 40,000  Level Los Angeles Center
06:40PM 35.6069 -114.0650 240° Southwest 428 493 40,000  Level Los Angeles Center
06:41PM 35.5481 -114.1889 240° Southwest 424 488 40,000  Level Los Angeles Center
06:42PM 35.4889 -114.3119 239° Southwest 429 494 40,000  Level Los Angeles Center
06:43PM 35.4300 -114.4386 240° Southwest 426 490 40,000  Level Los Angeles Center
06:44PM 35.3694 -114.5636 239° Southwest 425 489 40,000  Level Los Angeles Center
06:45PM 35.2942 -114.7192 239° Southwest 436 502 40,000  Level Los Angeles Center
06:46PM 35.2336 -114.8456 240° Southwest 433 498 40,000  Level Los Angeles Center
06:47PM 35.1722 -114.9739 240° Southwest 432 497 40,000  Level Los Angeles Center
06:48PM 35.1108 -115.0997 239° Southwest 432 497 40,000  Level Los Angeles Center
06:49PM 35.0497 -115.2278 240° Southwest 434 499 40,000  Level Los Angeles Center
06:50PM 34.9844 -115.3586 239° Southwest 428 493 40,000 -180 Level Los Angeles Center
06:51PM 34.9233 -115.4842 239° Southwest 429 494 39,700 -600 Descending Los Angeles Center
06:52PM 34.8625 -115.6078 239° Southwest 428 493 38,800 -960 Descending Los Angeles Center
06:53PM 34.8017 -115.7339 240° Southwest 433 498 37,800 -960 Descending Los Angeles Center
06:54PM 34.7386 -115.8592 239° Southwest 434 499 36,900 -960 Descending Los Angeles Center
06:55PM 34.6747 -115.9869 239° Southwest 440 506 35,900 -1,080 Descending Los Angeles Center
06:56PM 34.6006 -116.1397 240° Southwest 438 504 34,800 -1,020 Descending Los Angeles Center
06:57PM 34.5369 -116.2664 239° Southwest 440 506 33,800 -1,020 Descending Los Angeles Center
06:58PM 34.4706 -116.3953 238° Southwest 447 514 32,800 -1,320 Descending Los Angeles Center
07:00PM 34.4058 -116.5244 239° Southwest 448 516 31,200 -2,280 Descending Los Angeles Center
07:01PM 34.3419 -116.6508 239° Southwest 441 507 28,200 -2,760 Descending Los Angeles Center
07:02PM 34.2792 -116.7722 238° Southwest 430 495 25,500 -2,580 Descending Los Angeles Center
07:03PM 34.2192 -116.8869 238° Southwest 409 471 23,000 -2,460 Descending Los Angeles Center
07:04PM 34.1622 -117.0008 239° Southwest 399 459 20,500 -2,040 Descending Los Angeles Center
07:05PM 34.0981 -117.1325 240° Southwest 382 440 18,900 -2,040 Descending Los Angeles Center
07:06PM 34.0503 -117.2403 242° Southwest 378 435 16,300 -2,520 Descending Los Angeles Center
07:07PM 34.0383 -117.3686 264° West 387 445 13,800 -2,580 Descending Los Angeles Center
07:08PM 34.0167 -117.5167 260° West 370 426 11,100 -1,740 Descending Southern California TRACON
07:09PM 34.0167 -117.6167 270° West 404 465 10,400 -720 Descending Southern California TRACON
07:10PM 34.0000 -117.7167 259° West 273 314 9,700 -1,080 Descending Southern California TRACON
07:11PM 34.0000 -117.8167 270° West 279 321 8,300 -1,440 Descending Southern California TRACON
07:12PM 33.9833 -117.9167 259° West 283 326 6,900 -1,200 Descending Southern California TRACON
07:13PM 33.9833 -118.0000 270° West 279 321 5,900 -1,020 Descending Southern California TRACON
07:14PM 33.9667 -118.0833 256° West 266 306 4,900 -1,200 Descending Southern California TRACON
07:15PM 33.9667 -118.1667 270° West 251 289 3,500 -1,380 Descending Southern California TRACON
07:16PM 33.9500 -118.2500 256° West 219 252 2,200 -1,200 Descending Southern California TRACON
07:17PM 33.9500 -118.3000 270° West 185 213 1,300 -780 Descending Southern California TRACON
07:17PM 33.9439 -118.3256 254° West 202 232 1,100 -720 Descending Los Angeles Center
07:18PM 33.9392 -118.3772 264° West 149 171 200 -900 Descending Los Angeles Center
07:20PM 33.9333 -118.4000 259° West  Level FlightAware Approximate
07:27PM 33.9425 -118.4081 259° West  Level Estimated